createdAt,value
2017-04-09T00:00:37.355Z,18.22
2017-04-09T00:01:36.504Z,18.57
2017-04-09T00:02:35.661Z,19.92
2017-04-09T00:03:35.481Z,18.18
2017-04-09T00:04:34.563Z,19.18
2017-04-09T00:05:33.779Z,17.32
2017-04-09T00:06:32.909Z,17.85
2017-04-09T00:07:32.100Z,19.32
2017-04-09T00:08:31.290Z,18.20
2017-04-09T00:09:30.400Z,20.67
2017-04-09T00:10:29.480Z,17.95
2017-04-09T00:11:28.655Z,18.30
2017-04-09T00:12:28.484Z,20.23
2017-04-09T00:13:27.607Z,20.08
2017-04-09T00:14:26.673Z,21.92
2017-04-09T00:15:25.732Z,20.95
2017-04-09T00:16:25.571Z,18.00
2017-04-09T00:17:24.651Z,19.33
2017-04-09T00:18:23.804Z,18.23
2017-04-09T00:19:23.623Z,20.42
2017-04-09T00:20:22.716Z,18.68
2017-04-09T00:21:21.847Z,20.23
2017-04-09T00:22:21.732Z,19.35
2017-04-09T00:23:21.572Z,18.68
2017-04-09T00:24:20.775Z,18.05
2017-04-09T00:25:19.923Z,19.52
2017-04-09T00:26:19.044Z,20.60
2017-04-09T00:27:18.119Z,20.28
2017-04-09T00:28:17.211Z,18.87
2017-04-09T00:29:16.314Z,19.50
2017-04-09T00:30:16.148Z,20.62
2017-04-09T00:31:15.271Z,19.88
2017-04-09T00:32:14.492Z,22.13
2017-04-09T00:33:13.479Z,17.58
2017-04-09T00:34:12.664Z,18.42
2017-04-09T00:35:11.836Z,18.02
2017-04-09T00:36:10.964Z,18.67
2017-04-09T00:37:09.993Z,18.55
2017-04-09T00:38:09.030Z,18.83
2017-04-09T00:39:08.192Z,19.90
2017-04-09T00:40:07.383Z,22.05
2017-04-09T00:41:06.502Z,23.30
2017-04-09T00:42:06.308Z,20.02
2017-04-09T00:43:07.944Z,21.30
2017-04-09T00:44:07.045Z,21.12
2017-04-09T00:45:06.104Z,21.88
2017-04-09T00:46:05.300Z,20.52
2017-04-09T00:47:04.415Z,20.50
2017-04-09T00:48:03.452Z,20.17
2017-04-09T00:49:02.527Z,21.02
2017-04-09T00:50:01.809Z,20.17
2017-04-09T00:51:00.939Z,18.52
2017-04-09T00:52:00.080Z,19.58
2017-04-09T00:52:59.224Z,19.30
2017-04-09T00:53:58.325Z,19.58
2017-04-09T00:54:57.460Z,18.70
2017-04-09T00:55:56.593Z,18.70
2017-04-09T00:56:55.675Z,18.42
2017-04-09T00:57:54.847Z,19.00
2017-04-09T00:58:53.924Z,19.52
2017-04-09T00:59:53.024Z,18.37
2017-04-09T01:00:52.185Z,19.05
2017-04-09T01:01:51.351Z,20.00
2017-04-09T01:02:50.487Z,20.85
2017-04-09T01:03:49.552Z,18.03
2017-04-09T01:04:48.747Z,19.10
2017-04-09T01:05:48.287Z,19.60
2017-04-09T01:06:47.365Z,18.23
2017-04-09T01:07:46.450Z,18.93
2017-04-09T01:08:45.636Z,21.18
2017-04-09T01:09:44.780Z,18.75
2017-04-09T01:10:44.653Z,20.28
2017-04-09T01:11:43.728Z,19.15
2017-04-09T01:12:42.809Z,19.82
2017-04-09T01:13:41.979Z,20.47
2017-04-09T01:14:41.080Z,19.52
2017-04-09T01:15:40.144Z,20.30
2017-04-09T01:16:39.647Z,20.48
2017-04-09T01:17:38.914Z,21.50
2017-04-09T01:18:37.999Z,18.60
2017-04-09T01:19:37.559Z,20.97
2017-04-09T01:20:36.602Z,19.83
2017-04-09T01:21:36.495Z,20.40
2017-04-09T01:22:36.251Z,19.62
2017-04-09T01:23:35.399Z,20.35
2017-04-09T01:24:34.608Z,19.53
2017-04-09T01:25:33.717Z,19.88
2017-04-09T01:26:33.533Z,18.28
2017-04-09T01:27:33.400Z,20.42
2017-04-09T01:28:32.520Z,21.73
2017-04-09T01:29:31.627Z,21.28
2017-04-09T01:30:30.812Z,19.07
2017-04-09T01:31:30.000Z,19.00
2017-04-09T01:32:29.254Z,21.38
2017-04-09T01:33:28.346Z,20.02
2017-04-09T01:34:27.355Z,21.92
2017-04-09T01:35:26.469Z,20.02
2017-04-09T01:36:25.543Z,21.45
2017-04-09T01:37:25.388Z,19.47
2017-04-09T01:38:24.510Z,21.32
2017-04-09T01:39:24.432Z,19.47
2017-04-09T01:40:23.631Z,20.33
2017-04-09T01:41:22.723Z,19.22
2017-04-09T01:42:21.872Z,19.10
2017-04-09T01:43:21.657Z,19.80
2017-04-09T01:44:20.799Z,22.65
2017-04-09T01:45:19.963Z,20.20
2017-04-09T01:46:19.109Z,21.52
2017-04-09T01:47:18.248Z,20.87
2017-04-09T01:48:17.368Z,20.42
2017-04-09T01:49:16.479Z,18.73
2017-04-09T01:50:15.579Z,19.75
2017-04-09T01:51:14.625Z,19.55
2017-04-09T01:52:13.696Z,24.10
2017-04-09T01:53:12.980Z,19.13
2017-04-09T01:54:12.139Z,22.35
2017-04-09T01:55:12.190Z,21.75
2017-04-09T01:56:11.288Z,20.57
2017-04-09T01:57:10.419Z,18.22
2017-04-09T01:58:09.488Z,20.42
2017-04-09T01:59:08.652Z,19.00
2017-04-09T02:00:08.584Z,19.75
2017-04-09T02:01:07.787Z,21.12
2017-04-09T02:02:06.811Z,22.13
2017-04-09T02:03:06.569Z,22.45
2017-04-09T02:04:05.781Z,20.57
2017-04-09T02:05:05.652Z,19.50
2017-04-09T02:06:04.792Z,19.60
2017-04-09T02:07:04.022Z,20.38
2017-04-09T02:08:03.194Z,19.12
2017-04-09T02:09:02.432Z,19.03
2017-04-09T02:10:01.526Z,21.52
2017-04-09T02:11:00.655Z,22.90
2017-04-09T02:11:59.783Z,20.92
2017-04-09T02:12:58.932Z,20.43
2017-04-09T02:13:58.139Z,19.47
2017-04-09T02:14:57.264Z,20.45
2017-04-09T02:15:56.337Z,20.03
2017-04-09T02:16:55.576Z,19.55
2017-04-09T02:17:54.676Z,18.33
2017-04-09T02:18:53.856Z,21.07
2017-04-09T02:19:52.974Z,20.15
2017-04-09T02:20:51.348Z,20.20
2017-04-09T02:21:51.330Z,19.10
2017-04-09T02:22:50.415Z,18.98
2017-04-09T02:23:49.583Z,20.28
2017-04-09T02:24:48.732Z,20.00
2017-04-09T02:25:47.788Z,18.97
2017-04-09T02:26:47.004Z,18.48
2017-04-09T02:27:46.222Z,21.32
2017-04-09T02:28:45.275Z,19.72
2017-04-09T02:29:44.436Z,19.63
2017-04-09T02:30:43.540Z,20.88
2017-04-09T02:31:42.592Z,19.47
2017-04-09T02:32:41.695Z,20.33
2017-04-09T02:33:40.728Z,21.37
2017-04-09T02:34:39.728Z,20.10
2017-04-09T02:35:38.838Z,18.72
2017-04-09T02:36:37.899Z,19.72
2017-04-09T02:37:37.835Z,19.93
2017-04-09T02:38:36.936Z,18.75
2017-04-09T02:39:36.045Z,19.90
2017-04-09T02:40:35.231Z,19.67
2017-04-09T02:41:34.323Z,18.13
2017-04-09T02:42:33.472Z,19.27
2017-04-09T02:43:32.595Z,18.87
2017-04-09T02:44:31.755Z,18.70
2017-04-09T02:45:30.953Z,17.83
2017-04-09T02:46:30.125Z,16.58
2017-04-09T02:47:29.241Z,16.60
2017-04-09T02:48:28.408Z,19.03
2017-04-09T02:49:27.509Z,19.25
2017-04-09T02:50:27.427Z,18.77
2017-04-09T02:51:26.535Z,19.70
2017-04-09T02:52:25.718Z,19.65
2017-04-09T02:53:24.868Z,20.17
2017-04-09T02:54:23.912Z,18.60
2017-04-09T02:55:22.983Z,17.67
2017-04-09T02:56:22.048Z,18.38
2017-04-09T02:57:21.172Z,18.03
2017-04-09T02:58:20.297Z,18.02
2017-04-09T02:59:19.453Z,17.55
2017-04-09T03:00:18.571Z,18.78
2017-04-09T03:01:18.512Z,16.83
2017-04-09T03:02:17.592Z,18.17
2017-04-09T03:03:16.664Z,18.43
2017-04-09T03:04:15.715Z,18.97
2017-04-09T03:05:14.813Z,20.48
2017-04-09T03:06:14.748Z,17.87
2017-04-09T03:07:13.842Z,17.85
2017-04-09T03:08:12.823Z,20.45
2017-04-09T03:09:11.896Z,17.92
2017-04-09T03:10:11.100Z,17.87
2017-04-09T03:11:10.222Z,16.98
2017-04-09T03:12:09.627Z,18.18
2017-04-09T03:13:08.704Z,20.15
2017-04-09T03:14:07.807Z,17.10
2017-04-09T03:15:06.977Z,17.03
2017-04-09T03:16:06.191Z,17.40
2017-04-09T03:17:05.349Z,18.47
2017-04-09T03:18:04.463Z,21.73
2017-04-09T03:19:03.637Z,18.47
2017-04-09T03:20:03.556Z,20.10
2017-04-09T03:21:03.475Z,19.70
2017-04-09T03:22:02.614Z,18.55
2017-04-09T03:23:01.627Z,18.32
2017-04-09T03:24:00.695Z,18.08
2017-04-09T03:25:00.563Z,20.60
2017-04-09T03:25:59.637Z,19.57
2017-04-09T03:26:58.740Z,18.63
2017-04-09T03:27:58.698Z,18.20
2017-04-09T03:28:57.780Z,16.13
2017-04-09T03:29:57.024Z,18.15
2017-04-09T03:30:56.074Z,18.00
2017-04-09T03:31:55.867Z,18.70
2017-04-09T03:32:55.805Z,16.97
2017-04-09T03:33:54.979Z,19.45
2017-04-09T03:34:54.081Z,17.53
2017-04-09T03:35:53.185Z,17.00
2017-04-09T03:36:52.397Z,17.73
2017-04-09T03:37:52.288Z,20.30
2017-04-09T03:38:52.094Z,17.38
2017-04-09T03:39:51.251Z,19.83
2017-04-09T03:40:50.468Z,18.38
2017-04-09T03:41:49.559Z,22.07
2017-04-09T03:42:48.556Z,18.18
2017-04-09T03:43:47.650Z,20.90
2017-04-09T03:44:46.804Z,20.17
2017-04-09T03:45:45.892Z,18.38
2017-04-09T03:46:45.068Z,18.62
2017-04-09T03:47:44.240Z,20.25
2017-04-09T03:48:43.325Z,19.62
2017-04-09T03:49:42.484Z,21.73
2017-04-09T03:50:41.607Z,19.72
2017-04-09T03:51:40.736Z,18.25
2017-04-09T03:52:39.840Z,18.18
2017-04-09T03:53:38.992Z,19.48
2017-04-09T03:54:38.091Z,17.82
2017-04-09T03:55:37.128Z,17.28
2017-04-09T03:56:37.003Z,19.40
2017-04-09T03:57:36.116Z,18.72
2017-04-09T03:58:35.971Z,20.33
2017-04-09T03:59:35.085Z,19.05
2017-04-09T04:00:35.020Z,17.95
2017-04-09T04:01:34.139Z,18.50
2017-04-09T04:02:33.360Z,18.15
2017-04-09T04:03:33.252Z,17.55
2017-04-09T04:04:33.076Z,17.62
2017-04-09T04:05:32.191Z,18.78
2017-04-09T04:06:31.260Z,20.08
2017-04-09T04:07:30.471Z,18.92
2017-04-09T04:08:29.500Z,17.07
2017-04-09T04:09:28.570Z,18.63
2017-04-09T04:10:27.669Z,17.53
2017-04-09T04:11:26.763Z,19.65
2017-04-09T04:12:25.884Z,17.20
2017-04-09T04:13:25.743Z,16.78
2017-04-09T04:14:24.760Z,17.70
2017-04-09T04:15:24.648Z,17.82
2017-04-09T04:16:23.752Z,17.50
2017-04-09T04:17:22.852Z,19.37
2017-04-09T04:18:21.932Z,17.62
2017-04-09T04:19:21.033Z,19.58
2017-04-09T04:20:20.103Z,18.65
2017-04-09T04:21:19.880Z,18.17
2017-04-09T04:22:18.999Z,18.88
2017-04-09T04:23:18.260Z,18.85
2017-04-09T04:24:17.403Z,19.22
2017-04-09T04:25:16.537Z,18.30
2017-04-09T04:26:15.615Z,19.53
2017-04-09T04:27:14.737Z,20.07
2017-04-09T04:28:13.820Z,18.17
2017-04-09T04:29:13.015Z,19.08
2017-04-09T04:30:12.072Z,17.52
2017-04-09T04:31:11.032Z,19.20
2017-04-09T04:32:10.172Z,19.65
2017-04-09T04:33:09.195Z,19.00
2017-04-09T04:34:08.287Z,19.95
2017-04-09T04:35:07.420Z,18.35
2017-04-09T04:36:06.496Z,17.88
2017-04-09T04:37:05.688Z,17.50
2017-04-09T04:38:05.515Z,18.43
2017-04-09T04:39:05.664Z,16.62
2017-04-09T04:40:04.742Z,17.50
2017-04-09T04:41:03.938Z,17.57
2017-04-09T04:42:03.076Z,17.47
2017-04-09T04:43:02.196Z,16.95
2017-04-09T04:44:01.270Z,16.17
2017-04-09T04:45:00.359Z,17.72
2017-04-09T04:45:59.463Z,18.55
2017-04-09T04:46:59.352Z,17.05
2017-04-09T04:47:58.477Z,17.78
2017-04-09T04:48:57.704Z,18.17
2017-04-09T04:49:56.815Z,17.07
2017-04-09T04:50:56.732Z,17.60
2017-04-09T04:51:55.839Z,19.52
2017-04-09T04:52:54.929Z,17.25
2017-04-09T04:53:54.072Z,17.58
2017-04-09T04:54:53.128Z,16.70
2017-04-09T04:55:52.848Z,16.60
2017-04-09T04:56:51.907Z,19.43
2017-04-09T04:57:51.070Z,18.82
2017-04-09T04:58:50.848Z,17.50
2017-04-09T04:59:49.976Z,16.65
2017-04-09T05:00:49.108Z,16.52
2017-04-09T05:01:48.316Z,18.93
2017-04-09T05:02:47.436Z,17.95
2017-04-09T05:03:46.595Z,17.90
2017-04-09T05:04:45.706Z,19.05
2017-04-09T05:05:44.736Z,18.33
2017-04-09T05:06:43.895Z,18.73
2017-04-09T05:07:42.958Z,18.35
2017-04-09T05:08:42.101Z,17.93
2017-04-09T05:09:41.354Z,18.72
2017-04-09T05:10:41.216Z,17.00
2017-04-09T05:11:40.344Z,17.90
2017-04-09T05:12:39.443Z,19.52
2017-04-09T05:13:38.547Z,17.38
2017-04-09T05:14:37.692Z,17.95
2017-04-09T05:15:36.825Z,16.67
2017-04-09T05:16:35.854Z,16.85
2017-04-09T05:17:34.868Z,16.33
2017-04-09T05:18:34.004Z,17.82
2017-04-09T05:19:33.127Z,17.50
2017-04-09T05:20:32.207Z,16.68
2017-04-09T05:21:31.284Z,15.97
2017-04-09T05:22:30.476Z,14.73
2017-04-09T05:23:29.652Z,18.10
2017-04-09T05:24:28.828Z,16.48
2017-04-09T05:25:27.963Z,17.35
2017-04-09T05:26:27.004Z,16.68
2017-04-09T05:27:26.176Z,15.65
2017-04-09T05:28:25.267Z,16.18
2017-04-09T05:29:25.101Z,16.45
2017-04-09T05:30:24.199Z,17.17
2017-04-09T05:31:23.300Z,17.47
2017-04-09T05:32:22.636Z,17.13
2017-04-09T05:33:21.744Z,19.02
2017-04-09T05:34:20.917Z,16.55
2017-04-09T05:35:20.141Z,17.35
2017-04-09T05:36:19.260Z,19.20
2017-04-09T05:37:18.359Z,20.10
2017-04-09T05:38:17.508Z,21.10
2017-04-09T05:39:17.267Z,18.35
2017-04-09T05:40:16.381Z,19.73
2017-04-09T05:41:15.515Z,18.95
2017-04-09T05:42:14.576Z,17.13
2017-04-09T05:43:13.711Z,17.20
2017-04-09T05:44:13.521Z,19.25
2017-04-09T05:45:13.367Z,17.87
2017-04-09T05:46:13.263Z,18.12
2017-04-09T05:47:12.403Z,19.12
2017-04-09T05:48:12.244Z,15.75
2017-04-09T05:49:12.905Z,18.53
2017-04-09T05:50:12.132Z,18.52
2017-04-09T05:51:11.424Z,16.97
2017-04-09T05:52:10.757Z,17.22
2017-04-09T05:53:11.715Z,17.12
2017-04-09T05:54:10.963Z,17.48
2017-04-09T05:55:10.880Z,19.63
2017-04-09T05:56:09.992Z,19.17
2017-04-09T05:57:09.128Z,17.83
2017-04-09T05:58:08.151Z,17.60
2017-04-09T05:59:07.200Z,17.57
2017-04-09T06:00:06.399Z,21.33
2017-04-09T06:01:05.459Z,18.13
2017-04-09T06:02:05.153Z,19.58
2017-04-09T06:03:04.304Z,19.02
2017-04-09T06:04:04.068Z,17.43
2017-04-09T06:05:03.096Z,20.55
2017-04-09T06:06:02.215Z,18.12
2017-04-09T06:07:01.380Z,18.37
2017-04-09T06:08:00.483Z,19.47
2017-04-09T06:08:59.661Z,19.52
2017-04-09T06:09:58.838Z,19.57
2017-04-09T06:10:58.020Z,20.08
2017-04-09T06:11:57.235Z,19.62
2017-04-09T06:12:57.076Z,18.73
2017-04-09T06:13:56.252Z,19.32
2017-04-09T06:14:55.444Z,22.73
2017-04-09T06:15:54.676Z,20.22
2017-04-09T06:16:54.512Z,20.70
2017-04-09T06:17:53.569Z,19.20
2017-04-09T06:18:52.757Z,19.42
2017-04-09T06:19:51.883Z,19.57
2017-04-09T06:20:50.992Z,20.28
2017-04-09T06:21:50.748Z,20.97
2017-04-09T06:22:49.812Z,19.88
2017-04-09T06:23:48.944Z,19.73
2017-04-09T06:24:48.776Z,22.25
2017-04-09T06:25:47.831Z,19.57
2017-04-09T06:26:46.935Z,19.33
2017-04-09T06:27:46.047Z,19.92
2017-04-09T06:28:45.097Z,19.80
2017-04-09T06:29:44.229Z,19.50
2017-04-09T06:30:44.041Z,23.30
2017-04-09T06:31:43.247Z,21.60
2017-04-09T06:32:42.430Z,21.57
2017-04-09T06:33:41.455Z,22.58
2017-04-09T06:34:40.624Z,24.43
2017-04-09T06:35:43.996Z,22.63
2017-04-09T06:36:43.065Z,22.62
2017-04-09T06:37:42.159Z,23.62
2017-04-09T06:38:41.251Z,23.43
2017-04-09T06:39:40.392Z,24.08
2017-04-09T06:40:39.502Z,24.40
2017-04-09T06:41:38.588Z,21.72
2017-04-09T06:42:37.718Z,22.95
2017-04-09T06:43:36.836Z,22.83
2017-04-09T06:44:36.004Z,22.62
2017-04-09T06:45:35.175Z,19.78
2017-04-09T06:46:34.339Z,22.87
2017-04-09T06:47:33.403Z,23.27
2017-04-09T06:48:32.566Z,24.22
2017-04-09T06:49:32.468Z,21.70
2017-04-09T06:50:32.391Z,23.72
2017-04-09T06:51:31.543Z,24.42
2017-04-09T06:52:31.341Z,24.02
2017-04-09T06:53:31.463Z,22.82
2017-04-09T06:54:30.464Z,19.57
2017-04-09T06:55:29.595Z,23.20
2017-04-09T06:56:29.554Z,24.38
2017-04-09T06:57:28.640Z,24.23
2017-04-09T06:58:28.233Z,23.28
2017-04-09T06:59:27.372Z,22.30
2017-04-09T07:00:26.529Z,22.55
2017-04-09T07:01:26.389Z,21.72
2017-04-09T07:02:26.864Z,18.58
2017-04-09T07:03:26.091Z,18.72
2017-04-09T07:04:25.252Z,19.15
2017-04-09T07:05:25.116Z,17.90
2017-04-09T07:06:24.289Z,17.22
2017-04-09T07:07:24.188Z,19.48
2017-04-09T07:08:23.984Z,17.20
2017-04-09T07:09:23.033Z,18.33
2017-04-09T07:10:22.004Z,18.58
2017-04-09T07:11:21.093Z,16.65
2017-04-09T07:12:20.156Z,17.58
2017-04-09T07:13:19.281Z,17.75
2017-04-09T07:14:18.356Z,20.32
2017-04-09T07:15:17.483Z,19.28
2017-04-09T07:16:16.616Z,17.98
2017-04-09T07:17:15.719Z,19.53
2017-04-09T07:18:14.900Z,20.43
2017-04-09T07:19:14.024Z,21.50
2017-04-09T07:20:12.451Z,19.82
2017-04-09T07:21:11.505Z,20.93
2017-04-09T07:22:10.571Z,18.53
2017-04-09T07:23:10.393Z,20.20
2017-04-09T07:24:09.499Z,21.67
2017-04-09T07:25:08.516Z,21.75
2017-04-09T07:26:07.664Z,20.40
2017-04-09T07:27:06.814Z,21.60
2017-04-09T07:28:05.904Z,20.87
2017-04-09T07:29:05.745Z,21.52
2017-04-09T07:30:05.601Z,20.15
2017-04-09T07:31:04.731Z,21.07
2017-04-09T07:32:04.586Z,21.00
2017-04-09T07:33:03.700Z,20.07
2017-04-09T07:34:03.552Z,20.13
2017-04-09T07:35:02.693Z,20.10
2017-04-09T07:36:02.539Z,18.77
2017-04-09T07:37:01.607Z,20.23
2017-04-09T07:38:00.776Z,19.48
2017-04-09T07:38:59.889Z,20.97
2017-04-09T07:39:59.061Z,22.05
2017-04-09T07:40:58.100Z,19.62
2017-04-09T07:41:57.257Z,19.90
2017-04-09T07:42:57.101Z,21.62
2017-04-09T07:43:56.199Z,19.85
2017-04-09T07:44:55.248Z,21.95
2017-04-09T07:45:54.311Z,21.53
2017-04-09T07:46:53.372Z,21.50
2017-04-09T07:47:53.180Z,21.45
2017-04-09T07:48:52.280Z,21.70
2017-04-09T07:49:51.371Z,20.52
2017-04-09T07:50:50.540Z,21.07
2017-04-09T07:51:49.570Z,21.12
2017-04-09T07:52:48.519Z,21.78
2017-04-09T07:53:47.634Z,22.15
2017-04-09T07:54:47.491Z,22.82
2017-04-09T07:55:46.626Z,22.13
2017-04-09T07:56:45.807Z,20.10
2017-04-09T07:57:44.796Z,22.82
2017-04-09T07:58:43.983Z,20.47
2017-04-09T07:59:43.120Z,22.62
2017-04-09T08:00:43.154Z,20.80
2017-04-09T08:01:42.248Z,21.00
2017-04-09T08:02:41.364Z,22.77
2017-04-09T08:03:40.762Z,20.88
2017-04-09T08:04:40.190Z,22.18
2017-04-09T08:05:39.287Z,22.25
2017-04-09T08:06:38.369Z,21.07
2017-04-09T08:07:37.460Z,21.85
2017-04-09T08:08:36.806Z,22.93
2017-04-09T08:09:35.909Z,22.27
2017-04-09T08:10:35.056Z,22.67
2017-04-09T08:11:34.168Z,22.45
2017-04-09T08:12:33.240Z,22.70
2017-04-09T08:13:32.395Z,23.55
2017-04-09T08:14:31.436Z,24.42
2017-04-09T08:15:30.435Z,24.52
2017-04-09T08:16:30.307Z,24.72
2017-04-09T08:17:29.448Z,22.15
2017-04-09T08:18:28.551Z,23.07
2017-04-09T08:19:27.647Z,23.97
2017-04-09T08:20:26.768Z,23.82
2017-04-09T08:21:25.900Z,22.05
2017-04-09T08:22:24.932Z,23.23
2017-04-09T08:23:24.027Z,23.25
2017-04-09T08:24:23.117Z,23.03
2017-04-09T08:25:22.260Z,20.58
2017-04-09T08:26:21.286Z,23.32
2017-04-09T08:27:20.359Z,19.82
2017-04-09T08:28:19.476Z,21.80
2017-04-09T08:29:18.631Z,20.38
2017-04-09T08:30:17.679Z,23.20
2017-04-09T08:31:16.810Z,20.78
2017-04-09T08:32:15.968Z,22.92
2017-04-09T08:33:15.101Z,20.75
2017-04-09T08:34:14.228Z,20.98
2017-04-09T08:35:13.320Z,20.53
2017-04-09T08:36:12.516Z,22.90
2017-04-09T08:37:11.801Z,20.75
2017-04-09T08:38:11.606Z,21.08
2017-04-09T08:39:11.468Z,22.42
2017-04-09T08:40:10.557Z,21.10
2017-04-09T08:41:09.729Z,20.65
2017-04-09T08:42:08.896Z,18.68
2017-04-09T08:43:08.032Z,20.23
2017-04-09T08:44:07.116Z,20.17
2017-04-09T08:45:06.239Z,20.10
2017-04-09T08:46:05.292Z,19.90
2017-04-09T08:47:04.740Z,19.77
2017-04-09T08:48:04.681Z,20.95
2017-04-09T08:49:05.088Z,19.27
2017-04-09T08:50:04.126Z,20.47
2017-04-09T08:51:03.440Z,19.00
2017-04-09T08:52:05.155Z,19.68
2017-04-09T08:53:05.123Z,17.32
2017-04-09T08:54:04.213Z,19.60
2017-04-09T08:55:04.130Z,19.03
2017-04-09T08:56:03.464Z,19.67
2017-04-09T08:57:02.724Z,20.98
2017-04-09T08:58:01.951Z,19.02
2017-04-09T08:59:01.100Z,21.45
2017-04-09T09:00:00.112Z,18.42
2017-04-09T09:00:59.260Z,19.03
2017-04-09T09:01:58.349Z,18.48
2017-04-09T09:02:57.492Z,18.97
2017-04-09T09:03:56.661Z,18.67
2017-04-09T09:04:56.507Z,17.85
2017-04-09T09:05:55.559Z,17.77
2017-04-09T09:06:54.624Z,17.18
2017-04-09T09:07:53.664Z,20.32
2017-04-09T09:08:52.861Z,18.35
2017-04-09T09:09:52.634Z,18.57
2017-04-09T09:10:51.735Z,19.77
2017-04-09T09:11:51.567Z,18.80
2017-04-09T09:12:50.632Z,18.77
2017-04-09T09:13:49.791Z,18.78
2017-04-09T09:14:49.647Z,19.90
2017-04-09T09:15:48.723Z,19.35
2017-04-09T09:16:47.884Z,19.33
2017-04-09T09:17:46.927Z,19.43
2017-04-09T09:18:46.768Z,18.87
2017-04-09T09:19:45.839Z,20.10
2017-04-09T09:20:44.947Z,20.32
2017-04-09T09:21:44.092Z,21.00
2017-04-09T09:22:43.165Z,20.42
2017-04-09T09:23:42.240Z,18.93
2017-04-09T09:24:41.280Z,19.43
2017-04-09T09:25:40.462Z,20.25
2017-04-09T09:26:39.603Z,20.40
2017-04-09T09:27:38.740Z,19.80
2017-04-09T09:28:39.088Z,18.97
2017-04-09T09:29:38.232Z,17.27
2017-04-09T09:30:38.088Z,16.08
2017-04-09T09:31:37.169Z,17.23
2017-04-09T09:32:36.285Z,15.53
2017-04-09T09:33:35.417Z,15.87
2017-04-09T09:34:34.517Z,14.17
2017-04-09T09:35:33.620Z,16.38
2017-04-09T09:36:33.411Z,17.55
2017-04-09T09:37:33.298Z,16.82
2017-04-09T09:38:32.420Z,18.32
2017-04-09T09:39:31.517Z,17.28
2017-04-09T09:40:30.588Z,17.62
2017-04-09T09:41:29.671Z,17.62
2017-04-09T09:42:28.684Z,18.72
2017-04-09T09:43:27.756Z,16.12
2017-04-09T09:44:26.819Z,17.93
2017-04-09T09:45:25.999Z,17.20
2017-04-09T09:46:25.152Z,18.38
2017-04-09T09:47:24.337Z,17.57
2017-04-09T09:48:23.427Z,17.80
2017-04-09T09:49:22.524Z,16.65
2017-04-09T09:50:21.615Z,16.55
2017-04-09T09:51:20.696Z,15.82
2017-04-09T09:52:19.666Z,15.78
2017-04-09T09:53:18.751Z,16.33
2017-04-09T09:54:18.269Z,14.95
2017-04-09T09:55:18.116Z,14.57
2017-04-09T09:56:17.298Z,12.88
2017-04-09T09:57:16.356Z,14.00
2017-04-09T09:58:15.479Z,15.48
2017-04-09T09:59:14.580Z,15.40
2017-04-09T10:00:14.440Z,16.28
2017-04-09T10:01:13.656Z,15.08
2017-04-09T10:02:13.439Z,15.92
2017-04-09T10:03:12.587Z,15.48
2017-04-09T10:04:11.760Z,15.47
2017-04-09T10:05:10.856Z,16.63
2017-04-09T10:06:10.751Z,16.40
2017-04-09T10:07:09.789Z,14.75
2017-04-09T10:08:08.862Z,15.50
2017-04-09T10:09:08.032Z,15.72
2017-04-09T10:10:07.195Z,15.18
2017-04-09T10:11:06.303Z,14.58
2017-04-09T10:12:06.136Z,14.45
2017-04-09T10:13:05.196Z,15.13
2017-04-09T10:14:04.296Z,13.68
2017-04-09T10:15:03.364Z,15.15
2017-04-09T10:16:02.567Z,15.65
2017-04-09T10:17:01.615Z,13.37
2017-04-09T10:18:02.162Z,16.55
2017-04-09T10:19:01.147Z,17.85
2017-04-09T10:20:00.135Z,19.43
2017-04-09T10:20:59.984Z,18.18
2017-04-09T10:21:59.074Z,16.33
2017-04-09T10:22:58.157Z,16.63
2017-04-09T10:23:57.195Z,17.23
2017-04-09T10:24:57.031Z,16.97
2017-04-09T10:25:56.075Z,15.98
2017-04-09T10:26:55.212Z,14.37
2017-04-09T10:27:55.152Z,14.70
2017-04-09T10:28:54.172Z,14.80
2017-04-09T10:29:53.327Z,14.28
2017-04-09T10:30:52.492Z,13.93
2017-04-09T10:31:51.564Z,17.25
2017-04-09T10:32:51.367Z,15.52
2017-04-09T10:33:50.393Z,16.55
2017-04-09T10:34:49.530Z,16.23
2017-04-09T10:35:48.551Z,14.67
2017-04-09T10:36:47.596Z,14.47
2017-04-09T10:37:46.679Z,13.97
2017-04-09T10:38:45.723Z,15.27
2017-04-09T10:39:45.527Z,15.03
2017-04-09T10:40:44.579Z,17.15
2017-04-09T10:41:44.463Z,14.68
2017-04-09T10:42:43.427Z,17.37
2017-04-09T10:43:42.655Z,18.23
2017-04-09T10:44:41.763Z,17.23
2017-04-09T10:45:40.839Z,15.28
2017-04-09T10:46:39.946Z,18.07
2017-04-09T10:47:39.052Z,16.53
2017-04-09T10:48:38.820Z,17.48
2017-04-09T10:49:37.964Z,16.47
2017-04-09T10:50:37.072Z,16.60
2017-04-09T10:51:36.140Z,16.30
2017-04-09T10:52:35.242Z,16.75
2017-04-09T10:53:34.340Z,18.15
2017-04-09T10:54:34.223Z,16.70
2017-04-09T10:55:33.235Z,15.37
2017-04-09T10:56:33.024Z,14.28
2017-04-09T10:57:32.779Z,14.73
2017-04-09T10:58:31.984Z,15.02
2017-04-09T10:59:31.125Z,15.70
2017-04-09T11:00:30.231Z,13.72
2017-04-09T11:01:29.767Z,13.12
2017-04-09T11:02:29.621Z,13.30
2017-04-09T11:03:28.796Z,13.97
2017-04-09T11:04:27.923Z,15.28
2017-04-09T11:05:26.954Z,14.15
2017-04-09T11:06:25.968Z,13.80
2017-04-09T11:07:25.752Z,14.47
2017-04-09T11:08:25.695Z,14.62
2017-04-09T11:09:24.744Z,13.90
2017-04-09T11:10:23.876Z,13.98
2017-04-09T11:11:22.964Z,14.17
2017-04-09T11:12:22.104Z,12.40
2017-04-09T11:13:21.268Z,11.60
2017-04-09T11:14:20.350Z,12.82
2017-04-09T11:15:19.492Z,13.97
2017-04-09T11:16:18.636Z,13.10
2017-04-09T11:17:17.687Z,15.78
2017-04-09T11:18:16.797Z,13.68
2017-04-09T11:19:15.875Z,12.68
2017-04-09T11:20:14.975Z,12.67
2017-04-09T11:21:14.050Z,12.62
2017-04-09T11:22:13.095Z,12.45
2017-04-09T11:23:12.192Z,12.42
2017-04-09T11:24:11.288Z,12.15
2017-04-09T11:25:10.853Z,12.92
2017-04-09T11:26:10.026Z,14.20
2017-04-09T11:27:08.992Z,12.18
2017-04-09T11:28:08.100Z,15.72
2017-04-09T11:29:07.230Z,12.95
2017-04-09T11:30:07.040Z,14.30
2017-04-09T11:31:06.064Z,12.20
2017-04-09T11:32:05.177Z,13.47
2017-04-09T11:33:05.040Z,14.35
2017-04-09T11:34:04.149Z,13.13
2017-04-09T11:35:03.888Z,14.05
2017-04-09T11:36:03.169Z,12.75
2017-04-09T11:37:02.402Z,12.48
2017-04-09T11:38:02.437Z,11.82
2017-04-09T11:39:01.520Z,12.02
2017-04-09T11:40:00.608Z,12.37
2017-04-09T11:40:59.919Z,10.85
2017-04-09T11:41:59.828Z,11.17
2017-04-09T11:42:59.056Z,12.48
2017-04-09T11:43:58.132Z,10.52
2017-04-09T11:44:57.127Z,11.78
2017-04-09T11:45:56.253Z,10.68
2017-04-09T11:46:55.295Z,10.93
2017-04-09T11:47:54.456Z,13.02
2017-04-09T11:48:53.603Z,13.55
2017-04-09T11:49:53.436Z,12.50
2017-04-09T11:50:52.523Z,12.38
2017-04-09T11:51:51.608Z,13.43
2017-04-09T11:52:50.761Z,12.58
2017-04-09T11:53:49.844Z,14.33
2017-04-09T11:54:48.980Z,14.43
2017-04-09T11:55:48.099Z,13.48
2017-04-09T11:56:47.184Z,11.65
2017-04-09T11:57:46.355Z,13.42
2017-04-09T11:58:46.137Z,12.33
2017-04-09T11:59:45.987Z,12.57
2017-04-09T12:00:45.093Z,13.45
2017-04-09T12:01:44.276Z,11.73
2017-04-09T12:02:43.484Z,12.75
2017-04-09T12:03:43.436Z,14.02
2017-04-09T12:04:42.680Z,13.05
2017-04-09T12:05:41.772Z,12.25
2017-04-09T12:06:40.856Z,11.08
2017-04-09T12:07:39.978Z,12.13
2017-04-09T12:08:38.979Z,11.08
2017-04-09T12:09:38.155Z,13.53
2017-04-09T12:10:38.008Z,13.43
2017-04-09T12:11:37.063Z,12.28
2017-04-09T12:12:36.328Z,12.18
2017-04-09T12:13:35.533Z,12.17
2017-04-09T12:14:34.619Z,13.93
2017-04-09T12:15:33.672Z,12.32
2017-04-09T12:16:32.787Z,12.47
2017-04-09T12:17:32.012Z,12.57
2017-04-09T12:18:31.116Z,12.88
2017-04-09T12:19:30.379Z,12.73
2017-04-09T12:20:30.251Z,12.73
2017-04-09T12:21:29.287Z,13.13
2017-04-09T12:22:28.364Z,13.00
2017-04-09T12:23:27.427Z,13.85
2017-04-09T12:24:26.579Z,12.63
2017-04-09T12:25:25.731Z,13.22
2017-04-09T12:26:24.762Z,12.25
2017-04-09T12:27:23.788Z,13.92
2017-04-09T12:28:22.878Z,13.50
2017-04-09T12:29:22.043Z,13.60
2017-04-09T12:30:21.100Z,13.12
2017-04-09T12:31:20.230Z,13.03
2017-04-09T12:32:20.163Z,13.07
2017-04-09T12:33:19.191Z,13.60
2017-04-09T12:34:18.231Z,13.17
2017-04-09T12:35:17.315Z,14.17
2017-04-09T12:36:16.552Z,11.77
2017-04-09T12:37:16.100Z,13.15
2017-04-09T12:38:15.327Z,12.35
2017-04-09T12:39:15.279Z,13.03
2017-04-09T12:40:14.379Z,11.38
2017-04-09T12:41:13.492Z,12.88
2017-04-09T12:42:13.316Z,13.90
2017-04-09T12:43:12.481Z,12.62